sensor_id;sensor_type;location;lat;lon;timestamp;pressure;altitude;pressure_sealevel;temperature;humidity
77205;BME280;67992;46.618;18.850;2023-03-30T00:00:19;100744.34;;;18.15;31.56
77205;BME280;67992;46.618;18.850;2023-03-30T00:02:49;100749.91;;;18.14;31.63
77205;BME280;67992;46.618;18.850;2023-03-30T00:05:16;100736.69;;;18.04;31.52
77205;BME280;67992;46.618;18.850;2023-03-30T00:07:45;100741.72;;;18.07;31.85
77205;BME280;67992;46.618;18.850;2023-03-30T00:10:15;100736.06;;;17.94;31.11
77205;BME280;67992;46.618;18.850;2023-03-30T00:12:46;100767.97;;;18.05;31.67
77205;BME280;67992;46.618;18.850;2023-03-30T00:15:16;100765.47;;;18.04;31.75
77205;BME280;67992;46.618;18.850;2023-03-30T00:17:42;100763.13;;;18.01;31.65
77205;BME280;67992;46.618;18.850;2023-03-30T00:20:11;100755.22;;;17.99;31.81
77205;BME280;67992;46.618;18.850;2023-03-30T00:22:37;100745.47;;;17.98;31.52
77205;BME280;67992;46.618;18.850;2023-03-30T00:25:05;100727.63;;;17.97;31.52
77205;BME280;67992;46.618;18.850;2023-03-30T00:27:33;100727.34;;;17.92;31.38
77205;BME280;67992;46.618;18.850;2023-03-30T00:30:13;100727.34;;;17.92;31.58
77205;BME280;67992;46.618;18.850;2023-03-30T00:32:42;100727.84;;;17.88;31.89
77205;BME280;67992;46.618;18.850;2023-03-30T00:35:09;100724.16;;;17.89;32.04
77205;BME280;67992;46.618;18.850;2023-03-30T00:37:37;100729.03;;;17.85;31.69
77205;BME280;67992;46.618;18.850;2023-03-30T00:40:11;100730.91;;;17.85;32.10
77205;BME280;67992;46.618;18.850;2023-03-30T00:42:41;100724.03;;;17.82;32.04
77205;BME280;67992;46.618;18.850;2023-03-30T00:50:25;100720.00;;;17.78;31.94
77205;BME280;67992;46.618;18.850;2023-03-30T00:52:57;100716.66;;;17.76;31.50
77205;BME280;67992;46.618;18.850;2023-03-30T00:55:27;100723.88;;;17.76;31.93
77205;BME280;67992;46.618;18.850;2023-03-30T00:57:55;100727.09;;;17.71;31.97
77205;BME280;67992;46.618;18.850;2023-03-30T01:00:21;100720.88;;;17.71;32.22
77205;BME280;67992;46.618;18.850;2023-03-30T01:02:59;100711.47;;;17.66;32.31
77205;BME280;67992;46.618;18.850;2023-03-30T01:05:32;100691.16;;;17.64;32.22
77205;BME280;67992;46.618;18.850;2023-03-30T01:08:02;100695.50;;;17.65;31.95
77205;BME280;67992;46.618;18.850;2023-03-30T01:10:33;100694.00;;;17.62;32.38
77205;BME280;67992;46.618;18.850;2023-03-30T01:13:00;100696.88;;;17.61;32.03
77205;BME280;67992;46.618;18.850;2023-03-30T01:15:27;100690.66;;;17.60;32.24
77205;BME280;67992;46.618;18.850;2023-03-30T01:18:14;100684.75;;;17.57;32.60
77205;BME280;67992;46.618;18.850;2023-03-30T01:21:21;100666.66;;;17.43;32.07
77205;BME280;67992;46.618;18.850;2023-03-30T01:27:19;100687.84;;;17.54;32.36
77205;BME280;67992;46.618;18.850;2023-03-30T01:47:05;100675.25;;;17.38;32.75
77205;BME280;67992;46.618;18.850;2023-03-30T01:49:56;100676.09;;;17.39;33.05
77205;BME280;67992;46.618;18.850;2023-03-30T01:58:11;100672.25;;;17.33;33.04
77205;BME280;67992;46.618;18.850;2023-03-30T02:00:39;100657.31;;;17.31;32.92
77205;BME280;67992;46.618;18.850;2023-03-30T02:03:13;100660.84;;;17.31;32.88
77205;BME280;67992;46.618;18.850;2023-03-30T02:05:45;100653.09;;;17.28;32.70
77205;BME280;67992;46.618;18.850;2023-03-30T02:08:17;100654.63;;;17.23;32.83
77205;BME280;67992;46.618;18.850;2023-03-30T02:10:48;100648.91;;;17.26;32.88
77205;BME280;67992;46.618;18.850;2023-03-30T02:13:16;100649.06;;;17.24;32.69
77205;BME280;67992;46.618;18.850;2023-03-30T02:15:49;100646.38;;;17.24;32.78
77205;BME280;67992;46.618;18.850;2023-03-30T02:18:16;100635.50;;;17.18;32.88
77205;BME280;67992;46.618;18.850;2023-03-30T02:20:50;100638.34;;;17.16;33.10
77205;BME280;67992;46.618;18.850;2023-03-30T02:23:21;100638.34;;;17.16;32.80
77205;BME280;67992;46.618;18.850;2023-03-30T02:25:47;100639.19;;;17.17;33.21
77205;BME280;67992;46.618;18.850;2023-03-30T02:28:14;100620.38;;;17.08;32.91
77205;BME280;67992;46.618;18.850;2023-03-30T02:30:46;100631.53;;;17.05;33.08
77205;BME280;67992;46.618;18.850;2023-03-30T02:36:26;100634.53;;;17.11;33.25
77205;BME280;67992;46.618;18.850;2023-03-30T02:39:27;100630.16;;;17.10;33.11
77205;BME280;67992;46.618;18.850;2023-03-30T02:55:12;100639.94;;;17.02;33.32
77205;BME280;67992;46.618;18.850;2023-03-30T03:00:28;100611.56;;;16.92;33.19
77205;BME280;67992;46.618;18.850;2023-03-30T03:02:59;100635.22;;;16.96;33.37
77205;BME280;67992;46.618;18.850;2023-03-30T03:05:29;100616.75;;;16.93;33.67
77205;BME280;67992;46.618;18.850;2023-03-30T03:07:57;100625.66;;;16.94;32.83
77205;BME280;67992;46.618;18.850;2023-03-30T03:10:26;100631.22;;;16.92;33.53
77205;BME280;67992;46.618;18.850;2023-03-30T03:12:57;100623.84;;;16.86;33.34
77205;BME280;67992;46.618;18.850;2023-03-30T03:15:29;100625.53;;;16.87;33.99
77205;BME280;67992;46.618;18.850;2023-03-30T03:17:56;100631.75;;;16.88;33.26
77205;BME280;67992;46.618;18.850;2023-03-30T03:20:22;100634.44;;;16.88;33.39
77205;BME280;67992;46.618;18.850;2023-03-30T03:22:51;100634.59;;;16.86;33.16
77205;BME280;67992;46.618;18.850;2023-03-30T03:25:16;100643.50;;;16.87;33.28
77205;BME280;67992;46.618;18.850;2023-03-30T03:27:42;100629.22;;;16.86;33.16
77205;BME280;67992;46.618;18.850;2023-03-30T03:30:08;100615.31;;;16.83;33.56
77205;BME280;67992;46.618;18.850;2023-03-30T03:32:37;100626.41;;;16.80;33.45
77205;BME280;67992;46.618;18.850;2023-03-30T03:35:06;100624.91;;;16.77;33.61
77205;BME280;67992;46.618;18.850;2023-03-30T03:37:35;100632.09;;;16.77;33.58
77205;BME280;67992;46.618;18.850;2023-03-30T03:40:04;100634.47;;;16.80;33.61
77205;BME280;67992;46.618;18.850;2023-03-30T03:42:30;100629.41;;;16.77;33.37
77205;BME280;67992;46.618;18.850;2023-03-30T03:44:56;100628.44;;;16.78;33.73
77205;BME280;67992;46.618;18.850;2023-03-30T03:47:23;100616.00;;;16.69;33.54
77205;BME280;67992;46.618;18.850;2023-03-30T03:49:55;100629.59;;;16.75;33.74
77205;BME280;67992;46.618;18.850;2023-03-30T03:52:24;100633.78;;;16.78;34.07
77205;BME280;67992;46.618;18.850;2023-03-30T03:54:59;100627.91;;;16.74;33.67
77205;BME280;67992;46.618;18.850;2023-03-30T03:57:24;100628.91;;;16.73;33.52
77205;BME280;67992;46.618;18.850;2023-03-30T03:59:52;100636.16;;;16.73;33.68
77205;BME280;67992;46.618;18.850;2023-03-30T04:02:20;100629.28;;;16.70;33.62
77205;BME280;67992;46.618;18.850;2023-03-30T04:04:48;100629.09;;;16.72;33.69
77205;BME280;67992;46.618;18.850;2023-03-30T04:07:19;100623.22;;;16.68;33.55
77205;BME280;67992;46.618;18.850;2023-03-30T04:09:48;100616.84;;;16.69;33.72
77205;BME280;67992;46.618;18.850;2023-03-30T04:12:16;100602.91;;;16.58;33.93
77205;BME280;67992;46.618;18.850;2023-03-30T04:14:45;100614.50;;;16.66;33.73
77205;BME280;67992;46.618;18.850;2023-03-30T04:17:16;100617.19;;;16.66;33.87
77205;BME280;67992;46.618;18.850;2023-03-30T04:19:50;100601.41;;;16.63;33.69
77205;BME280;67992;46.618;18.850;2023-03-30T04:22:22;100613.00;;;16.64;33.83
77205;BME280;67992;46.618;18.850;2023-03-30T04:24:51;100597.91;;;16.55;33.97
77205;BME280;67992;46.618;18.850;2023-03-30T04:27:17;100602.56;;;16.61;33.75
77205;BME280;67992;46.618;18.850;2023-03-30T04:29:43;100594.84;;;16.58;33.94
77205;BME280;67992;46.618;18.850;2023-03-30T04:32:11;100599.91;;;16.61;33.92
77205;BME280;67992;46.618;18.850;2023-03-30T04:34:38;100605.25;;;16.61;33.96
77205;BME280;67992;46.618;18.850;2023-03-30T04:37:15;100607.81;;;16.62;34.04
77205;BME280;67992;46.618;18.850;2023-03-30T04:39:45;100603.44;;;16.61;34.07
77205;BME280;67992;46.618;18.850;2023-03-30T04:42:15;100583.94;;;16.51;33.92
77205;BME280;67992;46.618;18.850;2023-03-30T04:44:47;100599.22;;;16.59;34.22
77205;BME280;67992;46.618;18.850;2023-03-30T04:47:15;100600.91;;;16.60;34.02
77205;BME280;67992;46.618;18.850;2023-03-30T04:49:43;100602.56;;;16.61;33.96
77205;BME280;67992;46.618;18.850;2023-03-30T04:52:12;100597.38;;;16.59;34.48
77205;BME280;67992;46.618;18.850;2023-03-30T04:54:45;100598.06;;;16.61;34.07
77205;BME280;67992;46.618;18.850;2023-03-30T04:57:14;100602.59;;;16.53;34.04
77205;BME280;67992;46.618;18.850;2023-03-30T04:59:44;100620.91;;;16.57;34.22
77205;BME280;67992;46.618;18.850;2023-03-30T05:02:10;100606.44;;;16.58;33.82
77205;BME280;67992;46.618;18.850;2023-03-30T05:04:40;100604.94;;;16.56;34.28
77205;BME280;67992;46.618;18.850;2023-03-30T05:07:11;100600.59;;;16.55;34.11
77205;BME280;67992;46.618;18.850;2023-03-30T05:09:42;100595.53;;;16.52;34.08
77205;BME280;67992;46.618;18.850;2023-03-30T05:12:08;100596.53;;;16.51;33.91
77205;BME280;67992;46.618;18.850;2023-03-30T05:14:36;100599.22;;;16.51;34.27
77205;BME280;67992;46.618;18.850;2023-03-30T05:17:01;100596.53;;;16.51;34.12
77205;BME280;67992;46.618;18.850;2023-03-30T05:19:30;100588.66;;;16.49;34.11
77205;BME280;67992;46.618;18.850;2023-03-30T05:21:58;100584.97;;;16.42;34.23
77205;BME280;67992;46.618;18.850;2023-03-30T05:24:27;100608.31;;;16.50;34.34
77205;BME280;67992;46.618;18.850;2023-03-30T05:26:55;100612.16;;;16.47;34.36
77205;BME280;67992;46.618;18.850;2023-03-30T05:29:21;100606.63;;;16.40;34.34
77205;BME280;67992;46.618;18.850;2023-03-30T05:31:49;100607.47;;;16.41;34.29
77205;BME280;67992;46.618;18.850;2023-03-30T05:34:15;100602.41;;;16.46;34.08
77205;BME280;67992;46.618;18.850;2023-03-30T05:36:40;100600.56;;;16.47;34.40
77205;BME280;67992;46.618;18.850;2023-03-30T05:39:06;100603.25;;;16.47;34.61
77205;BME280;67992;46.618;18.850;2023-03-30T05:41:33;100608.13;;;16.43;34.44
77205;BME280;67992;46.618;18.850;2023-03-30T05:43:58;100601.75;;;16.44;34.62
77205;BME280;67992;46.618;18.850;2023-03-30T05:46:24;100597.38;;;16.43;34.73
77205;BME280;67992;46.618;18.850;2023-03-30T05:48:50;100602.94;;;16.41;34.91
77205;BME280;67992;46.618;18.850;2023-03-30T05:51:16;100594.03;;;16.33;34.96
77205;BME280;67992;46.618;18.850;2023-03-30T05:53:41;100605.09;;;16.46;34.87
77205;BME280;67992;46.618;18.850;2023-03-30T05:56:09;100606.63;;;16.40;34.79
77205;BME280;67992;46.618;18.850;2023-03-30T05:58:35;100599.41;;;16.41;34.63
77205;BME280;67992;46.618;18.850;2023-03-30T06:01:04;100599.41;;;16.41;34.85
77205;BME280;67992;46.618;18.850;2023-03-30T06:03:30;100583.47;;;16.39;34.75
77205;BME280;67992;46.618;18.850;2023-03-30T06:05:56;100595.22;;;16.38;35.09
77205;BME280;67992;46.618;18.850;2023-03-30T06:08:22;100591.88;;;16.36;34.95
77205;BME280;67992;46.618;18.850;2023-03-30T06:10:55;100588.84;;;16.31;34.82
77205;BME280;67992;46.618;18.850;2023-03-30T06:13:22;100593.53;;;16.37;34.53
77205;BME280;67992;46.618;18.850;2023-03-30T06:15:51;100588.16;;;16.37;34.96
77205;BME280;67992;46.618;18.850;2023-03-30T06:18:20;100582.44;;;16.32;35.11
77205;BME280;67992;46.618;18.850;2023-03-30T06:20:48;100585.00;;;16.34;35.15
77205;BME280;67992;46.618;18.850;2023-03-30T06:23:18;100576.94;;;16.34;34.76
77205;BME280;67992;46.618;18.850;2023-03-30T06:25:47;100582.13;;;16.35;34.99
77205;BME280;67992;46.618;18.850;2023-03-30T06:28:21;100585.00;;;16.34;35.16
77205;BME280;67992;46.618;18.850;2023-03-30T06:30:49;100559.97;;;16.17;35.05
77205;BME280;67992;46.618;18.850;2023-03-30T06:33:16;100591.22;;;16.34;35.11
77205;BME280;67992;46.618;18.850;2023-03-30T06:35:51;100586.66;;;16.35;34.99
77205;BME280;67992;46.618;18.850;2023-03-30T06:38:20;100569.88;;;16.33;34.86
77205;BME280;67992;46.618;18.850;2023-03-30T06:40:47;100577.72;;;16.42;35.19
77205;BME280;67992;46.618;18.850;2023-03-30T06:43:18;100571.88;;;16.39;35.23
77205;BME280;67992;46.618;18.850;2023-03-30T06:45:52;100562.78;;;16.40;35.15
77205;BME280;67992;46.618;18.850;2023-03-30T06:48:19;100572.03;;;16.37;35.42
77205;BME280;67992;46.618;18.850;2023-03-30T06:50:46;100565.16;;;16.35;35.33
77205;BME280;67992;46.618;18.850;2023-03-30T06:53:13;100584.13;;;16.41;35.16
77205;BME280;67992;46.618;18.850;2023-03-30T06:55:38;100584.97;;;16.42;35.06
77205;BME280;67992;46.618;18.850;2023-03-30T06:58:10;100584.97;;;16.42;35.16
77205;BME280;67992;46.618;18.850;2023-03-30T07:00:36;100587.81;;;16.40;35.01
77205;BME280;67992;46.618;18.850;2023-03-30T07:03:07;100588.66;;;16.41;35.25
77205;BME280;67992;46.618;18.850;2023-03-30T07:05:33;100590.50;;;16.40;35.41
77205;BME280;67992;46.618;18.850;2023-03-30T07:08:02;100586.81;;;16.41;35.47
77205;BME280;67992;46.618;18.850;2023-03-30T07:10:30;100590.69;;;16.39;35.45
77205;BME280;67992;46.618;18.850;2023-03-30T07:12:59;100583.47;;;16.39;35.43
77205;BME280;67992;46.618;18.850;2023-03-30T07:15:27;100588.00;;;16.39;35.41
77205;BME280;67992;46.618;18.850;2023-03-30T07:17:56;100578.25;;;16.30;35.58
77205;BME280;67992;46.618;18.850;2023-03-30T07:20:21;100584.81;;;16.35;35.50
77205;BME280;67992;46.618;18.850;2023-03-30T07:22:47;100580.94;;;16.38;35.56
77205;BME280;67992;46.618;18.850;2023-03-30T07:25:12;100578.59;;;16.35;35.38
77205;BME280;67992;46.618;18.850;2023-03-30T07:27:38;100584.13;;;16.33;35.61
77205;BME280;67992;46.618;18.850;2023-03-30T07:30:06;100592.53;;;16.38;35.47
77205;BME280;67992;46.618;18.850;2023-03-30T07:32:33;100595.22;;;16.38;35.57
77205;BME280;67992;46.618;18.850;2023-03-30T07:34:58;100601.91;;;16.42;35.56
77205;BME280;67992;46.618;18.850;2023-03-30T07:37:24;100599.91;;;16.44;35.65
77205;BME280;67992;46.618;18.850;2023-03-30T07:39:49;100597.03;;;16.46;35.33
77205;BME280;67992;46.618;18.850;2023-03-30T07:42:15;100589.97;;;16.45;35.82
77205;BME280;67992;46.618;18.850;2023-03-30T07:44:41;100584.13;;;16.41;35.58
77205;BME280;67992;46.618;18.850;2023-03-30T07:47:06;100597.22;;;16.44;35.69
77205;BME280;67992;46.618;18.850;2023-03-30T07:49:32;100596.19;;;16.45;35.78
77205;BME280;67992;46.618;18.850;2023-03-30T07:52:00;100589.00;;;16.46;35.80
77205;BME280;67992;46.618;18.850;2023-03-30T07:54:26;100582.63;;;16.47;36.08
77205;BME280;67992;46.618;18.850;2023-03-30T07:56:55;100580.09;;;16.45;36.35
77205;BME280;67992;46.618;18.850;2023-03-30T07:59:22;100574.56;;;16.47;36.21
77205;BME280;67992;46.618;18.850;2023-03-30T08:01:48;100579.41;;;16.52;35.85
77205;BME280;67992;46.618;18.850;2023-03-30T08:04:19;100559.78;;;16.43;36.04
77205;BME280;67992;46.618;18.850;2023-03-30T08:06:45;100576.06;;;16.50;35.67
77205;BME280;67992;46.618;18.850;2023-03-30T08:09:17;100566.31;;;16.49;35.98
77205;BME280;67992;46.618;18.850;2023-03-30T08:11:42;100567.16;;;16.49;36.26
77205;BME280;67992;46.618;18.850;2023-03-30T08:14:11;100567.16;;;16.49;36.07
77205;BME280;67992;46.618;18.850;2023-03-30T08:16:36;100568.00;;;16.50;36.00
77205;BME280;67992;46.618;18.850;2023-03-30T08:19:02;100565.31;;;16.50;35.98
77205;BME280;67992;46.618;18.850;2023-03-30T08:21:28;100547.38;;;16.42;35.86
77205;BME280;67992;46.618;18.850;2023-03-30T08:23:56;100561.13;;;16.47;36.13
77205;BME280;67992;46.618;18.850;2023-03-30T08:26:26;100556.56;;;16.48;36.17
77205;BME280;67992;46.618;18.850;2023-03-30T08:28:53;100565.31;;;16.50;36.59
77205;BME280;67992;46.618;18.850;2023-03-30T08:31:21;100558.25;;;16.49;36.08
77205;BME280;67992;46.618;18.850;2023-03-30T08:33:50;100562.13;;;16.46;36.41
77205;BME280;67992;46.618;18.850;2023-03-30T08:36:17;100564.47;;;16.49;36.44
77205;BME280;67992;46.618;18.850;2023-03-30T08:38:45;100566.13;;;16.50;36.33
77205;BME280;67992;46.618;18.850;2023-03-30T08:44:00;100560.44;;;16.45;36.34
77205;BME280;67992;46.618;18.850;2023-03-30T08:46:28;100566.13;;;16.50;36.68
77205;BME280;67992;46.618;18.850;2023-03-30T08:48:59;100564.16;;;16.52;36.35
77205;BME280;67992;46.618;18.850;2023-03-30T08:51:33;100556.09;;;16.52;36.39
77205;BME280;67992;46.618;18.850;2023-03-30T08:54:05;100557.06;;;16.51;36.85
77205;BME280;67992;46.618;18.850;2023-03-30T08:57:10;100547.00;;;16.53;36.12
77205;BME280;67992;46.618;18.850;2023-03-30T09:02:33;100553.41;;;16.52;36.57
77205;BME280;67992;46.618;18.850;2023-03-30T09:05:19;100551.53;;;16.53;36.24
77205;BME280;67992;46.618;18.850;2023-03-30T09:07:54;100531.06;;;16.52;36.68
77205;BME280;67992;46.618;18.850;2023-03-30T09:10:26;100535.28;;;16.54;36.67
77205;BME280;67992;46.618;18.850;2023-03-30T09:12:58;100538.63;;;16.56;36.51
77205;BME280;67992;46.618;18.850;2023-03-30T09:18:30;100515.44;;;16.55;36.66
77205;BME280;67992;46.618;18.850;2023-03-30T09:20:58;100510.06;;;16.55;36.44
77205;BME280;67992;46.618;18.850;2023-03-30T09:23:33;100511.94;;;16.55;36.92
77205;BME280;67992;46.618;18.850;2023-03-30T09:29:02;100502.69;;;16.57;36.53
77205;BME280;67992;46.618;18.850;2023-03-30T09:31:47;100490.59;;;16.53;36.68
77205;BME280;67992;46.618;18.850;2023-03-30T09:37:16;100504.00;;;16.61;36.91
77205;BME280;67992;46.618;18.850;2023-03-30T09:39:46;100509.38;;;16.61;36.82
77205;BME280;67992;46.618;18.850;2023-03-30T09:42:26;100494.25;;;16.60;36.73
77205;BME280;67992;46.618;18.850;2023-03-30T09:45:16;100492.25;;;16.62;36.83
77205;BME280;67992;46.618;18.850;2023-03-30T09:47:44;100477.97;;;16.62;36.68
77205;BME280;67992;46.618;18.850;2023-03-30T09:50:24;100479.63;;;16.63;36.81
77205;BME280;67992;46.618;18.850;2023-03-30T09:53:04;100470.56;;;16.64;36.92
77205;BME280;67992;46.618;18.850;2023-03-30T09:55:35;100476.13;;;16.62;36.88
77205;BME280;67992;46.618;18.850;2023-03-30T09:58:19;100468.88;;;16.63;36.96
77205;BME280;67992;46.618;18.850;2023-03-30T10:01:03;100455.97;;;16.58;36.75
77205;BME280;67992;46.618;18.850;2023-03-30T10:03:31;100443.41;;;16.51;36.87
77205;BME280;67992;46.618;18.850;2023-03-30T10:06:04;100462.34;;;16.65;36.85
77205;BME280;67992;46.618;18.850;2023-03-30T10:08:35;100457.97;;;16.64;36.83
77205;BME280;67992;46.618;18.850;2023-03-30T10:11:12;100435.03;;;16.54;36.81
77205;BME280;67992;46.618;18.850;2023-03-30T10:13:46;100460.47;;;16.66;36.83
77205;BME280;67992;46.618;18.850;2023-03-30T10:16:27;100467.72;;;16.65;36.91
77205;BME280;67992;46.618;18.850;2023-03-30T10:19:12;100453.78;;;16.62;37.14
77205;BME280;67992;46.618;18.850;2023-03-30T10:21:48;100468.38;;;16.67;36.97
77205;BME280;67992;46.618;18.850;2023-03-30T10:24:28;100472.56;;;16.70;37.13
77205;BME280;67992;46.618;18.850;2023-03-30T10:27:08;100474.41;;;16.69;36.99
77205;BME280;67992;46.618;18.850;2023-03-30T10:29:48;100460.31;;;16.67;36.97
77205;BME280;67992;46.618;18.850;2023-03-30T10:32:26;100463.47;;;16.71;37.22
77205;BME280;67992;46.618;18.850;2023-03-30T10:34:58;100458.09;;;16.71;37.26
77205;BME280;67992;46.618;18.850;2023-03-30T10:37:45;100453.09;;;16.68;37.11
77205;BME280;67992;46.618;18.850;2023-03-30T10:40:20;100435.81;;;16.62;37.15
77205;BME280;67992;46.618;18.850;2023-03-30T10:42:51;100444.84;;;16.69;36.92
77205;BME280;67992;46.618;18.850;2023-03-30T10:45:32;100436.78;;;16.69;37.28
77205;BME280;67992;46.618;18.850;2023-03-30T10:56:49;100412.59;;;16.69;37.07
77205;BME280;67992;46.618;18.850;2023-03-30T11:05:29;100392.94;;;16.69;37.28
77205;BME280;67992;46.618;18.850;2023-03-30T11:08:36;100396.47;;;16.69;37.12
77205;BME280;67992;46.618;18.850;2023-03-30T11:11:04;100392.09;;;16.68;37.34
77205;BME280;67992;46.618;18.850;2023-03-30T11:13:41;100391.28;;;16.68;37.31
77205;BME280;67992;46.618;18.850;2023-03-30T11:16:27;100388.22;;;16.71;37.12
77205;BME280;67992;46.618;18.850;2023-03-30T11:19:05;100367.16;;;16.60;37.40
77205;BME280;67992;46.618;18.850;2023-03-30T11:22:24;100374.13;;;16.69;37.22
77205;BME280;67992;46.618;18.850;2023-03-30T11:24:32;100380.56;;;16.68;37.51
77205;BME280;67992;46.618;18.850;2023-03-30T11:27:08;100371.66;;;16.67;37.26
77205;BME280;67992;46.618;18.850;2023-03-30T11:29:48;100368.97;;;16.67;37.26
77205;BME280;67992;46.618;18.850;2023-03-30T11:35:20;100363.59;;;16.67;37.66
77205;BME280;67992;46.618;18.850;2023-03-30T11:38:12;100366.44;;;16.66;37.68
77205;BME280;67992;46.618;18.850;2023-03-30T11:43:19;100363.94;;;16.64;37.63
77205;BME280;67992;46.618;18.850;2023-03-30T11:46:02;100358.38;;;16.66;37.36
77205;BME280;67992;46.618;18.850;2023-03-30T11:49:49;100345.97;;;16.65;37.72
77205;BME280;67992;46.618;18.850;2023-03-30T11:54:45;100344.13;;;16.65;37.87
77205;BME280;67992;46.618;18.850;2023-03-30T11:57:33;100344.13;;;16.65;37.56
77205;BME280;67992;46.618;18.850;2023-03-30T12:05:29;100309.25;;;16.57;37.60
77205;BME280;67992;46.618;18.850;2023-03-30T12:08:02;100311.03;;;16.65;37.65
77205;BME280;67992;46.618;18.850;2023-03-30T12:10:39;100310.84;;;16.66;37.73
77205;BME280;67992;46.618;18.850;2023-03-30T12:13:11;100310.00;;;16.66;37.79
77205;BME280;67992;46.618;18.850;2023-03-30T12:15:42;100303.13;;;16.63;37.89
77205;BME280;67992;46.618;18.850;2023-03-30T12:18:13;100296.75;;;16.64;38.08
77205;BME280;67992;46.618;18.850;2023-03-30T12:20:52;100283.19;;;16.58;38.08
77205;BME280;67992;46.618;18.850;2023-03-30T12:23:48;100276.63;;;16.60;38.05
77205;BME280;67992;46.618;18.850;2023-03-30T12:26:25;100275.41;;;16.63;37.70
77205;BME280;67992;46.618;18.850;2023-03-30T12:29:09;100274.41;;;16.64;37.91
77205;BME280;67992;46.618;18.850;2023-03-30T12:34:32;100259.31;;;16.63;38.11
77205;BME280;67992;46.618;18.850;2023-03-30T12:37:35;100252.28;;;16.62;38.24
77205;BME280;67992;46.618;18.850;2023-03-30T12:40:18;100250.25;;;16.64;38.00
77205;BME280;67992;46.618;18.850;2023-03-30T12:43:41;100242.38;;;16.62;38.35
77205;BME280;67992;46.618;18.850;2023-03-30T12:45:52;100245.88;;;16.63;38.22
77205;BME280;67992;46.618;18.850;2023-03-30T12:48:48;100241.34;;;16.63;38.03
77205;BME280;67992;46.618;18.850;2023-03-30T12:51:38;100233.28;;;16.63;38.15
77205;BME280;67992;46.618;18.850;2023-03-30T12:59:58;100228.59;;;16.65;38.18
77205;BME280;67992;46.618;18.850;2023-03-30T13:07:46;100205.94;;;16.60;38.15
77205;BME280;67992;46.618;18.850;2023-03-30T13:13:00;100218.34;;;16.61;38.13
77205;BME280;67992;46.618;18.850;2023-03-30T13:18:23;100215.94;;;16.66;38.25
77205;BME280;67992;46.618;18.850;2023-03-30T13:23:25;100203.72;;;16.63;38.35
77205;BME280;67992;46.618;18.850;2023-03-30T13:26:04;100207.91;;;16.66;38.65
77205;BME280;67992;46.618;18.850;2023-03-30T13:31:54;100195.50;;;16.65;38.22
77205;BME280;67992;46.618;18.850;2023-03-30T13:34:50;100197.88;;;16.60;38.49
77205;BME280;67992;46.618;18.850;2023-03-30T13:37:31;100195.50;;;16.65;38.39
77205;BME280;67992;46.618;18.850;2023-03-30T13:40:10;100193.81;;;16.64;38.54
77205;BME280;67992;46.618;18.850;2023-03-30T13:42:53;100182.91;;;16.65;38.49
77205;BME280;67992;46.618;18.850;2023-03-30T13:45:49;100176.00;;;16.63;38.40
77205;BME280;67992;46.618;18.850;2023-03-30T13:48:30;100181.22;;;16.64;38.42
77205;BME280;67992;46.618;18.850;2023-03-30T13:51:00;100175.84;;;16.64;38.71
77205;BME280;67992;46.618;18.850;2023-03-30T13:53:32;100171.31;;;16.65;38.57
77205;BME280;67992;46.618;18.850;2023-03-30T13:56:08;100155.91;;;16.59;38.61
77205;BME280;67992;46.618;18.850;2023-03-30T13:58:37;100143.34;;;16.51;38.66
77205;BME280;67992;46.618;18.850;2023-03-30T14:01:11;100158.72;;;16.65;38.88
77205;BME280;67992;46.618;18.850;2023-03-30T14:03:57;100156.19;;;16.64;38.94
77205;BME280;67992;46.618;18.850;2023-03-30T14:06:32;100150.19;;;16.62;39.07
77205;BME280;67992;46.618;18.850;2023-03-30T14:11:43;100137.59;;;16.62;38.51
77205;BME280;67992;46.618;18.850;2023-03-30T14:14:37;100140.72;;;16.66;38.79
77205;BME280;67992;46.618;18.850;2023-03-30T14:17:22;100125.81;;;16.63;38.56
77205;BME280;67992;46.618;18.850;2023-03-30T14:22:52;100111.06;;;16.59;39.22
77205;BME280;67992;46.618;18.850;2023-03-30T14:25:52;100118.41;;;16.65;39.53
77205;BME280;67992;46.618;18.850;2023-03-30T14:28:19;100119.06;;;16.67;39.35
77205;BME280;67992;46.618;18.850;2023-03-30T14:30:58;100094.66;;;16.54;39.54
77205;BME280;67992;46.618;18.850;2023-03-30T14:33:30;100108.47;;;16.66;39.28
77205;BME280;67992;46.618;18.850;2023-03-30T14:36:03;100108.94;;;16.69;39.30
77205;BME280;67992;46.618;18.850;2023-03-30T14:38:32;100096.91;;;16.80;41.99
77205;BME280;67992;46.618;18.850;2023-03-30T14:43:40;100098.13;;;16.92;42.33
77205;BME280;67992;46.618;18.850;2023-03-30T14:46:10;100093.22;;;16.95;42.55
77205;BME280;67992;46.618;18.850;2023-03-30T14:48:42;100082.06;;;16.98;42.23
77205;BME280;67992;46.618;18.850;2023-03-30T14:51:42;100080.22;;;16.99;41.93
77205;BME280;67992;46.618;18.850;2023-03-30T14:54:23;100074.56;;;16.94;41.74
77205;BME280;67992;46.618;18.850;2023-03-30T14:56:56;100054.00;;;16.86;41.28
77205;BME280;67992;46.618;18.850;2023-03-30T14:59:22;100063.16;;;16.92;41.37
77205;BME280;67992;46.618;18.850;2023-03-30T15:01:52;100061.22;;;16.86;41.49
77205;BME280;67992;46.618;18.850;2023-03-30T15:04:19;100064.00;;;16.92;40.92
77205;BME280;67992;46.618;18.850;2023-03-30T15:06:50;100057.88;;;16.98;42.31
77205;BME280;67992;46.618;18.850;2023-03-30T15:09:25;100050.28;;;17.02;42.68
77205;BME280;67992;46.618;18.850;2023-03-30T15:11:59;100041.84;;;17.05;42.84
77205;BME280;67992;46.618;18.850;2023-03-30T15:14:34;100030.25;;;17.04;42.88